Time;durP1;ratioP1;P1;durP2;ratioP2;P2;SDS_P1;SDS_P2;PMS_P1;PMS_P2;Temp;Humidity;BMP_temperature;BMP_pressure;BME280_temperature;BME280_humidity;BME280_pressure;Samples;Min_cycle;Max_cycle;Signal;HPM_P1;HPM_P2
2022/07/26 00:01:48;;;;;;;;;27.40;27.20;;;;;;;;5230719;28;8791;-72
2022/07/26 00:04:19;;;;;;;;;60.60;50.00;;;;;;;;5230262;28;8767;-73
2022/07/26 00:06:50;;;;;;;;;47.00;40.40;;;;;;;;5230453;28;8829;-73
2022/07/26 00:09:21;;;;;;;;;35.00;32.60;;;;;;;;5230560;28;8772;-72
2022/07/26 00:11:53;;;;;;;;;26.40;26.40;;;;;;;;5247163;28;8884;-73
2022/07/26 00:14:24;;;;;;;;;26.25;26.00;;;;;;;;5230501;28;8763;-72
2022/07/26 00:16:55;;;;;;;;;31.20;30.20;;;;;;;;5214770;28;8771;-73
2022/07/26 00:19:26;;;;;;;;;24.00;24.00;;;;;;;;5230686;28;8759;-73
2022/07/26 00:24:47;;;;;;;;;45.40;38.80;;;;;;;;5237326;28;8815;-73
2022/07/26 00:27:18;;;;;;;;;34.80;32.00;;;;;;;;5263304;28;8795;-72
2022/07/26 00:29:49;;;;;;;;;14.25;14.25;;;;;;;;5246669;28;8795;-72
2022/07/26 00:32:20;;;;;;;;;13.00;13.00;;;;;;;;5246854;28;8872;-72
2022/07/26 00:34:51;;;;;;;;;22.00;21.00;;;;;;;;5247042;28;8796;-73
2022/07/26 00:37:23;;;;;;;;;35.40;32.40;;;;;;;;5265263;28;8823;-72
2022/07/26 00:39:54;;;;;;;;;34.20;32.40;;;;;;;;5234022;28;8788;-72
2022/07/26 00:42:44;;;;;;;;;32.20;30.00;;;;;;;;5252492;28;8823;-72
2022/07/26 00:45:15;;;;;;;;;27.20;27.20;;;;;;;;5267434;28;8791;-73
2022/07/26 00:47:46;;;;;;;;;32.60;31.00;;;;;;;;5250375;28;8777;-72
2022/07/26 00:50:17;;;;;;;;;30.40;29.80;;;;;;;;5267337;28;8815;-72
2022/07/26 00:52:49;;;;;;;;;12.50;12.50;;;;;;;;5251045;28;8788;-72
2022/07/26 00:55:20;;;;;;;;;28.50;27.50;;;;;;;;5229221;28;8779;-72
2022/07/26 00:57:51;;;;;;;;;45.20;39.00;;;;;;;;5258106;28;8793;-72
2022/07/26 01:00:26;;;;;;;;;27.60;27.60;;;;;;;;5250481;28;8788;-72
2022/07/26 01:02:59;;;;;;;;;60.60;49.40;;;;;;;;5250316;28;8772;-73
2022/07/26 01:05:31;;;;;;;;;26.00;26.00;;;;;;;;5234016;28;8861;-72
2022/07/26 01:08:02;;;;;;;;;59.00;48.40;;;;;;;;5233440;28;8850;-72
2022/07/26 01:10:34;;;;;;;;;51.00;40.00;;;;;;;;5233580;28;8872;-73
2022/07/26 01:13:05;;;;;;;;;46.40;39.80;;;;;;;;5245052;28;8799;-73
2022/07/26 01:15:36;;;;;;;;;47.00;39.60;;;;;;;;5229690;28;8783;-77
2022/07/26 01:18:07;;;;;;;;;24.00;23.50;;;;;;;;5245420;28;8814;-73
2022/07/26 01:20:39;;;;;;;;;51.20;43.00;;;;;;;;5245489;28;8794;-72
2022/07/26 01:23:10;;;;;;;;;36.00;32.60;;;;;;;;5228675;28;8793;-72
2022/07/26 01:25:41;;;;;;;;;43.00;36.40;;;;;;;;5245606;28;8794;-72
2022/07/26 01:28:12;;;;;;;;;40.00;35.60;;;;;;;;5255870;28;8827;-72
2022/07/26 01:31:01;;;;;;;;;3.25;3.25;;;;;;;;5252528;28;9483;-72
2022/07/26 01:33:33;;;;;;;;;57.75;47.25;;;;;;;;5247961;28;8806;-74
2022/07/26 01:36:04;;;;;;;;;16.25;16.25;;;;;;;;5246510;28;11561;-74
2022/07/26 01:38:35;;;;;;;;;19.25;19.25;;;;;;;;5229052;28;8775;-73
2022/07/26 01:41:07;;;;;;;;;16.00;16.00;;;;;;;;5229151;28;8795;-74
2022/07/26 01:43:38;;;;;;;;;15.00;15.00;;;;;;;;5232497;28;9557;-74
2022/07/26 01:46:09;;;;;;;;;47.00;39.60;;;;;;;;5237144;28;8795;-74
2022/07/26 01:48:40;;;;;;;;;15.25;15.25;;;;;;;;5254670;28;8794;-73
2022/07/26 01:51:11;;;;;;;;;35.25;32.75;;;;;;;;5249225;28;8779;-72
2022/07/26 01:53:44;;;;;;;;;8.75;8.75;;;;;;;;5247013;28;8805;-75
2022/07/26 01:56:15;;;;;;;;;19.00;18.00;;;;;;;;5228720;28;8798;-74
2022/07/26 01:58:46;;;;;;;;;34.60;32.40;;;;;;;;5228698;28;8799;-75
2022/07/26 02:01:17;;;;;;;;;24.75;24.75;;;;;;;;5245098;28;8804;-74
2022/07/26 02:04:57;;;;;;;;;23.00;22.75;;;;;;;;5247403;28;8787;-74
2022/07/26 02:06:59;;;;;;;;;11.75;11.75;;;;;;;;5248845;28;8789;-74
2022/07/26 02:09:30;;;;;;;;;9.75;9.75;;;;;;;;5244656;28;8934;-73
2022/07/26 02:12:02;;;;;;;;;55.00;46.00;;;;;;;;5228446;28;8807;-74
2022/07/26 02:14:33;;;;;;;;;52.80;45.00;;;;;;;;5228456;28;9617;-75
2022/07/26 02:17:04;;;;;;;;;18.00;17.50;;;;;;;;5228382;28;8787;-74
2022/07/26 02:19:35;;;;;;;;;16.50;16.50;;;;;;;;5244862;28;8826;-74
2022/07/26 02:22:06;;;;;;;;;19.50;19.50;;;;;;;;5244941;28;8787;-74
2022/07/26 02:24:56;;;;;;;;;53.40;45.20;;;;;;;;5261122;28;8808;-73
2022/07/26 02:27:27;;;;;;;;;25.50;25.50;;;;;;;;5264388;28;9612;-74
2022/07/26 02:30:16;;;;;;;;;19.25;18.50;;;;;;;;5246774;28;8783;-73
2022/07/26 02:32:47;;;;;;;;;17.75;17.00;;;;;;;;5232433;28;8880;-73
2022/07/26 02:35:19;;;;;;;;;13.40;13.40;;;;;;;;5248999;28;8782;-73
2022/07/26 02:37:50;;;;;;;;;39.00;33.50;;;;;;;;5232355;28;8783;-73
2022/07/26 02:40:21;;;;;;;;;54.40;45.00;;;;;;;;5248995;28;8775;-73
2022/07/26 02:42:52;;;;;;;;;72.80;57.20;;;;;;;;5249526;28;8976;-73
2022/07/26 02:45:23;;;;;;;;;131.00;107.20;;;;;;;;5249815;28;9587;-73
2022/07/26 02:47:55;;;;;;;;;16.75;15.00;;;;;;;;5248524;28;8812;-74
2022/07/26 02:50:27;;;;;;;;;36.25;31.75;;;;;;;;5252948;28;8764;-75
2022/07/26 02:52:58;;;;;;;;;57.20;47.20;;;;;;;;5252775;28;8796;-74
2022/07/26 02:55:29;;;;;;;;;10.00;10.00;;;;;;;;5236229;28;9636;-74
2022/07/26 02:58:00;;;;;;;;;13.00;13.00;;;;;;;;5270918;28;8776;-74
2022/07/26 03:00:31;;;;;;;;;35.75;33.25;;;;;;;;5269807;28;8842;-74
2022/07/26 03:03:02;;;;;;;;;15.00;15.00;;;;;;;;5268703;28;8865;-74
2022/07/26 03:05:51;;;;;;;;;18.00;18.00;;;;;;;;5266805;28;9315;-72
2022/07/26 03:08:22;;;;;;;;;14.50;14.50;;;;;;;;5232096;28;8771;-72
2022/07/26 03:10:54;;;;;;;;;54.60;46.00;;;;;;;;5231717;28;8803;-72
2022/07/26 03:13:25;;;;;;;;;12.75;12.75;;;;;;;;5251832;28;8868;-73
2022/07/26 03:15:56;;;;;;;;;21.50;21.50;;;;;;;;5247570;28;8792;-72
2022/07/26 03:18:27;;;;;;;;;6.00;6.00;;;;;;;;5263663;28;8792;-72
2022/07/26 03:20:58;;;;;;;;;7.25;7.25;;;;;;;;5269660;28;11443;-72
2022/07/26 03:23:32;;;;;;;;;5.25;5.25;;;;;;;;5269015;28;9539;-73
2022/07/26 03:26:03;;;;;;;;;10.00;10.00;;;;;;;;5246654;28;8783;-72
2022/07/26 03:28:34;;;;;;;;;7.75;7.75;;;;;;;;5238312;28;8819;-72
2022/07/26 03:31:05;;;;;;;;;16.25;16.25;;;;;;;;5249243;28;9533;-72
2022/07/26 03:33:36;;;;;;;;;9.25;9.25;;;;;;;;5256208;28;9530;-74
2022/07/26 03:36:10;;;;;;;;;8.50;8.50;;;;;;;;5239171;28;8877;-73
2022/07/26 03:38:41;;;;;;;;;22.00;21.25;;;;;;;;5249616;28;8779;-74
2022/07/26 03:41:12;;;;;;;;;11.50;11.50;;;;;;;;5250335;28;8795;-73
2022/07/26 03:43:43;;;;;;;;;14.50;14.50;;;;;;;;5268945;28;8907;-73
2022/07/26 03:46:14;;;;;;;;;9.50;9.50;;;;;;;;5230237;28;8807;-73
2022/07/26 03:49:03;;;;;;;;;15.00;15.00;;;;;;;;5247763;28;8755;-75
2022/07/26 03:51:34;;;;;;;;;10.75;10.75;;;;;;;;5246572;28;8872;-75
2022/07/26 03:54:24;;;;;;;;;19.25;18.75;;;;;;;;5263608;28;9672;-74
2022/07/26 03:57:13;;;;;;;;;8.00;8.00;;;;;;;;5232337;28;8821;-75
2022/07/26 03:59:44;;;;;;;;;10.25;10.25;;;;;;;;5229910;28;8795;-75
2022/07/26 04:02:34;;;;;;;;;16.50;16.50;;;;;;;;5235557;28;8821;-73
2022/07/26 04:05:05;;;;;;;;;17.67;17.67;;;;;;;;5250325;28;8777;-74
2022/07/26 04:07:44;;;;;;;;;7.00;7.00;;;;;;;;5250466;28;10293;-72
2022/07/26 04:10:17;;;;;;;;;7.75;7.75;;;;;;;;5234670;28;8916;-72
2022/07/26 04:12:51;;;;;;;;;1.25;1.00;;;;;;;;5250545;28;8796;-72
2022/07/26 04:15:22;;;;;;;;;6.50;6.50;;;;;;;;5266988;28;8781;-72
2022/07/26 04:17:53;;;;;;;;;8.25;8.25;;;;;;;;5245868;28;8855;-73
2022/07/26 04:20:24;;;;;;;;;10.25;10.25;;;;;;;;5245949;28;8890;-73
2022/07/26 04:23:13;;;;;;;;;9.00;9.00;;;;;;;;5245829;28;8880;-73
2022/07/26 04:26:09;;;;;;;;;7.00;7.00;;;;;;;;4864452;28;18338690;-74
2022/07/26 04:28:41;;;;;;;;;7.00;7.00;;;;;;;;5227328;28;8868;-73
2022/07/26 04:31:12;;;;;;;;;7.00;7.00;;;;;;;;5247452;28;8794;-75
2022/07/26 04:33:43;;;;;;;;;7.00;7.00;;;;;;;;5246972;28;8813;-74
2022/07/26 04:36:14;;;;;;;;;4.00;4.00;;;;;;;;5229826;28;9510;-73
2022/07/26 04:38:46;;;;;;;;;16.00;16.00;;;;;;;;5246661;28;8791;-72
2022/07/26 04:41:17;;;;;;;;;10.00;9.50;;;;;;;;5254808;28;8862;-73
2022/07/26 04:43:56;;;;;;;;;9.25;8.75;;;;;;;;5268747;28;8804;-71
2022/07/26 04:46:31;;;;;;;;;8.00;7.25;;;;;;;;5268949;28;8776;-72
2022/07/26 04:49:02;;;;;;;;;9.00;9.00;;;;;;;;5233892;28;8851;-71
2022/07/26 04:51:33;;;;;;;;;8.00;8.00;;;;;;;;5234021;28;9670;-72
2022/07/26 04:54:04;;;;;;;;;5.00;5.00;;;;;;;;5267253;28;8840;-72
2022/07/26 04:56:53;;;;;;;;;5.00;5.00;;;;;;;;5248371;28;8807;-73
2022/07/26 04:59:24;;;;;;;;;6.25;6.25;;;;;;;;5248564;28;8791;-72
2022/07/26 05:01:56;;;;;;;;;6.00;6.00;;;;;;;;5247235;28;8813;-77
2022/07/26 05:04:27;;;;;;;;;5.50;5.50;;;;;;;;5249233;28;8796;-73
2022/07/26 05:07:01;;;;;;;;;7.75;7.75;;;;;;;;5263467;28;8796;-72
2022/07/26 05:09:50;;;;;;;;;5.75;5.75;;;;;;;;5256598;28;8822;-72
2022/07/26 05:12:21;;;;;;;;;15.50;15.00;;;;;;;;5249606;28;8858;-72
2022/07/26 05:14:54;;;;;;;;;9.25;9.25;;;;;;;;5267026;28;8769;-72
2022/07/26 05:17:26;;;;;;;;;4.50;4.50;;;;;;;;5250469;28;8793;-73
2022/07/26 05:19:57;;;;;;;;;5.00;5.00;;;;;;;;5249821;28;8780;-73
2022/07/26 05:22:27;;;;;;;;;6.25;6.25;;;;;;;;5266884;28;8815;-73
2022/07/26 05:25:17;;;;;;;;;7.00;7.00;;;;;;;;5268429;28;9494;-72
2022/07/26 05:27:48;;;;;;;;;7.25;7.25;;;;;;;;5249949;28;8792;-73
2022/07/26 05:30:19;;;;;;;;;7.00;7.00;;;;;;;;5249941;28;8773;-73
2022/07/26 05:32:50;;;;;;;;;4.00;4.00;;;;;;;;5266590;28;8869;-73
2022/07/26 05:35:39;;;;;;;;;5.00;5.00;;;;;;;;5268398;28;8786;-73
2022/07/26 05:38:10;;;;;;;;;3.33;3.33;;;;;;;;5249745;28;8789;-74
2022/07/26 05:40:59;;;;;;;;;4.00;4.00;;;;;;;;5267443;28;10900;-73
2022/07/26 05:43:30;;;;;;;;;6.00;6.00;;;;;;;;5267918;28;8788;-72
2022/07/26 05:46:01;;;;;;;;;6.00;6.00;;;;;;;;5265978;28;10907;-73
2022/07/26 05:48:33;;;;;;;;;5.00;5.00;;;;;;;;5249689;28;8850;-74
2022/07/26 05:51:05;;;;;;;;;6.00;6.00;;;;;;;;5249641;28;11368;-73
2022/07/26 05:53:36;;;;;;;;;6.00;6.00;;;;;;;;5266357;28;8820;-74
2022/07/26 05:56:07;;;;;;;;;6.00;6.00;;;;;;;;5266180;28;8786;-74
2022/07/26 05:58:58;;;;;;;;;3.50;3.50;;;;;;;;5252615;28;9507;-73
2022/07/26 06:01:31;;;;;;;;;6.00;6.00;;;;;;;;5267542;28;8811;-73
2022/07/26 06:04:03;;;;;;;;;4.00;4.00;;;;;;;;5265729;28;8850;-74
2022/07/26 06:06:34;;;;;;;;;5.25;5.25;;;;;;;;5249218;28;8850;-73
2022/07/26 06:09:23;;;;;;;;;5.25;5.25;;;;;;;;5251846;28;8777;-73
2022/07/26 06:11:54;;;;;;;;;8.00;8.00;;;;;;;;5232745;28;8916;-74
2022/07/26 06:14:25;;;;;;;;;3.50;3.50;;;;;;;;5266101;28;8761;-71
2022/07/26 06:16:56;;;;;;;;;4.75;4.75;;;;;;;;5232636;28;8780;-74
2022/07/26 06:19:46;;;;;;;;;5.00;5.00;;;;;;;;5266090;28;8761;-74
2022/07/26 06:22:17;;;;;;;;;3.50;3.50;;;;;;;;5249018;28;8807;-74
2022/07/26 06:24:48;;;;;;;;;3.75;3.75;;;;;;;;5249065;28;8808;-73
2022/07/26 06:27:18;;;;;;;;;3.33;3.33;;;;;;;;5248891;28;8804;-73
2022/07/26 06:29:51;;;;;;;;;1.33;1.33;;;;;;;;5265806;28;8834;-73
2022/07/26 06:32:43;;;;;;;;;1.25;1.25;;;;;;;;5251765;28;9055;-74
2022/07/26 06:35:14;;;;;;;;;4.00;4.00;;;;;;;;5265795;28;8816;-74
2022/07/26 06:37:45;;;;;;;;;4.00;4.00;;;;;;;;5266747;28;9616;-74
2022/07/26 06:40:35;;;;;;;;;0.00;0.00;;;;;;;;5265944;28;8870;-73
2022/07/26 06:43:06;;;;;;;;;4.25;4.25;;;;;;;;5248956;28;8865;-73
2022/07/26 06:45:37;;;;;;;;;4.00;4.00;;;;;;;;5248888;28;8789;-74
2022/07/26 06:48:08;;;;;;;;;4.00;4.00;;;;;;;;5265662;28;8789;-74
2022/07/26 06:50:39;;;;;;;;;4.00;4.00;;;;;;;;5249067;28;8887;-72
2022/07/26 06:53:10;;;;;;;;;2.25;2.25;;;;;;;;5267131;28;11473;-74
2022/07/26 06:55:41;;;;;;;;;5.50;5.50;;;;;;;;5266830;28;8785;-74
2022/07/26 06:58:13;;;;;;;;;4.25;4.25;;;;;;;;5265579;28;8780;-74
2022/07/26 07:00:44;;;;;;;;;5.00;5.00;;;;;;;;5248897;28;8788;-74
2022/07/26 07:03:15;;;;;;;;;1.33;1.33;;;;;;;;5231763;28;11294;-74
2022/07/26 07:06:05;;;;;;;;;4.00;4.00;;;;;;;;5267096;28;11500;-72
2022/07/26 07:08:36;;;;;;;;;4.75;4.75;;;;;;;;5248786;28;9495;-72
2022/07/26 07:11:07;;;;;;;;;3.50;2.50;;;;;;;;5248630;28;8792;-73
2022/07/26 07:13:38;;;;;;;;;4.00;4.00;;;;;;;;5248587;28;8854;-73
2022/07/26 07:16:09;;;;;;;;;6.50;6.50;;;;;;;;5233172;28;8780;-74
2022/07/26 07:18:39;;;;;;;;;3.33;3.33;;;;;;;;5269363;28;8796;-74
2022/07/26 07:21:10;;;;;;;;;4.00;4.00;;;;;;;;5270517;28;10294;-74
2022/07/26 07:24:00;;;;;;;;;3.50;3.50;;;;;;;;5255159;28;8888;-74
2022/07/26 07:26:31;;;;;;;;;4.75;4.75;;;;;;;;5268886;28;8873;-74
2022/07/26 07:29:02;;;;;;;;;4.50;4.50;;;;;;;;5269051;28;8911;-74
2022/07/26 07:31:33;;;;;;;;;3.00;3.00;;;;;;;;5252143;28;8776;-74
2022/07/26 07:34:03;;;;;;;;;4.00;4.00;;;;;;;;5269970;28;8800;-74
2022/07/26 07:36:34;;;;;;;;;4.00;4.00;;;;;;;;5270018;28;11398;-74
2022/07/26 07:39:05;;;;;;;;;5.00;5.00;;;;;;;;5252343;28;8869;-74
2022/07/26 07:41:37;;;;;;;;;4.00;4.00;;;;;;;;5270274;28;8807;-74
2022/07/26 07:44:27;;;;;;;;;5.00;5.00;;;;;;;;5254538;28;8776;-74
2022/07/26 07:46:58;;;;;;;;;4.00;4.00;;;;;;;;5268950;28;8760;-74
2022/07/26 07:49:47;;;;;;;;;6.00;6.00;;;;;;;;5268971;28;9122;-74
2022/07/26 07:52:37;;;;;;;;;4.00;4.00;;;;;;;;5268496;28;9506;-74
2022/07/26 07:55:08;;;;;;;;;5.00;5.00;;;;;;;;5251694;28;8780;-74
2022/07/26 07:57:39;;;;;;;;;4.00;4.00;;;;;;;;5235031;28;8808;-74
2022/07/26 08:00:13;;;;;;;;;4.25;4.25;;;;;;;;5251702;28;8765;-74
2022/07/26 08:02:45;;;;;;;;;6.00;6.00;;;;;;;;5268507;28;8851;-74
2022/07/26 08:05:16;;;;;;;;;6.00;6.00;;;;;;;;5251512;28;8846;-74
2022/07/26 08:08:05;;;;;;;;;1.25;1.25;;;;;;;;5268711;28;8816;-74
2022/07/26 08:10:36;;;;;;;;;5.00;5.00;;;;;;;;5268473;28;9506;-74
2022/07/26 08:13:07;;;;;;;;;4.50;4.50;;;;;;;;5268300;28;8827;-74
2022/07/26 08:15:38;;;;;;;;;5.00;5.00;;;;;;;;5251331;28;8950;-74
2022/07/26 08:18:09;;;;;;;;;3.67;3.67;;;;;;;;5234805;28;8915;-74
2022/07/26 08:20:40;;;;;;;;;6.00;6.00;;;;;;;;5251233;28;11382;-74
2022/07/26 08:23:11;;;;;;;;;4.50;4.50;;;;;;;;5251123;28;11438;-74
2022/07/26 08:25:42;;;;;;;;;3.67;3.67;;;;;;;;5269365;28;8800;-74
2022/07/26 08:28:15;;;;;;;;;4.25;4.25;;;;;;;;5249698;28;8816;-74
2022/07/26 08:30:46;;;;;;;;;4.00;4.00;;;;;;;;5268049;28;8792;-74
2022/07/26 08:33:17;;;;;;;;;4.33;4.33;;;;;;;;5269150;28;8804;-74
2022/07/26 08:35:48;;;;;;;;;5.00;5.00;;;;;;;;5269547;28;9714;-74
2022/07/26 08:38:19;;;;;;;;;2.75;2.75;;;;;;;;5269431;28;8854;-74
2022/07/26 08:40:50;;;;;;;;;5.00;5.00;;;;;;;;5268650;28;8781;-74
2022/07/26 08:43:21;;;;;;;;;1.00;1.00;;;;;;;;5250740;28;8796;-74
2022/07/26 08:45:58;;;;;;;;;2.00;2.00;;;;;;;;5250878;28;8796;-74
2022/07/26 08:48:29;;;;;;;;;4.00;4.00;;;;;;;;5250779;28;9495;-74
2022/07/26 08:51:05;;;;;;;;;2.50;2.50;;;;;;;;5267478;28;8857;-74
2022/07/26 08:53:36;;;;;;;;;4.25;4.25;;;;;;;;5267082;28;8820;-74
2022/07/26 08:56:07;;;;;;;;;2.25;2.25;;;;;;;;5268629;28;8853;-74
2022/07/26 08:58:39;;;;;;;;;4.00;4.00;;;;;;;;5250657;28;8764;-74
2022/07/26 09:01:11;;;;;;;;;2.00;2.00;;;;;;;;5267152;28;8789;-73
2022/07/26 09:03:43;;;;;;;;;1.50;1.50;;;;;;;;5267009;28;8804;-74
2022/07/26 09:06:18;;;;;;;;;3.50;3.50;;;;;;;;5250212;28;8808;-74
2022/07/26 09:08:50;;;;;;;;;1.25;1.25;;;;;;;;5250326;28;8801;-74
2022/07/26 09:11:29;;;;;;;;;2.00;2.00;;;;;;;;5255317;28;8803;-74
2022/07/26 09:14:01;;;;;;;;;2.75;2.75;;;;;;;;5242589;28;8809;-74
2022/07/26 09:16:32;;;;;;;;;3.00;3.00;;;;;;;;5260906;28;8784;-74
2022/07/26 09:19:16;;;;;;;;;3.00;3.00;;;;;;;;5262046;28;8800;-74
2022/07/26 09:21:47;;;;;;;;;1.00;1.00;;;;;;;;5242779;28;8788;-72
2022/07/26 09:24:39;;;;;;;;;2.25;2.25;;;;;;;;5240447;28;8785;-73
2022/07/26 09:27:12;;;;;;;;;1.50;1.50;;;;;;;;5256603;28;8788;-74
2022/07/26 09:29:45;;;;;;;;;1.75;1.75;;;;;;;;5234135;28;8877;-74
2022/07/26 09:32:21;;;;;;;;;1.50;1.50;;;;;;;;5266841;28;8865;-74
2022/07/26 09:34:56;;;;;;;;;8.00;8.00;;;;;;;;5266360;28;8785;-74
2022/07/26 09:37:53;;;;;;;;;5.50;5.50;;;;;;;;5233157;28;9515;-74
2022/07/26 09:40:29;;;;;;;;;2.00;2.00;;;;;;;;5245646;28;8784;-74
2022/07/26 09:43:02;;;;;;;;;2.00;2.00;;;;;;;;5249781;28;8802;-74
2022/07/26 09:45:35;;;;;;;;;2.25;2.25;;;;;;;;5266986;28;8772;-74
2022/07/26 09:48:09;;;;;;;;;2.50;2.50;;;;;;;;5266253;28;8777;-75
2022/07/26 09:50:46;;;;;;;;;4.50;4.50;;;;;;;;5232826;28;8784;-74
2022/07/26 09:53:16;;;;;;;;;2.25;2.25;;;;;;;;5267708;28;8808;-74
2022/07/26 09:55:47;;;;;;;;;2.50;2.50;;;;;;;;5266321;28;8792;-74
2022/07/26 09:58:19;;;;;;;;;16.25;16.25;;;;;;;;5233445;28;8781;-74
2022/07/26 10:00:50;;;;;;;;;5.00;5.00;;;;;;;;5266265;28;8861;-74
2022/07/26 10:03:39;;;;;;;;;1.00;1.00;;;;;;;;5252072;28;8780;-74
2022/07/26 10:06:10;;;;;;;;;2.25;2.25;;;;;;;;5265929;28;8787;-74
2022/07/26 10:08:41;;;;;;;;;2.00;2.00;;;;;;;;5266171;28;8761;-74
2022/07/26 10:11:13;;;;;;;;;0.00;0.00;;;;;;;;5265968;28;8792;-74
2022/07/26 10:13:43;;;;;;;;;0.00;0.00;;;;;;;;5232452;28;8820;-74
2022/07/26 10:16:28;;;;;;;;;2.00;2.00;;;;;;;;5265959;28;8780;-74
2022/07/26 10:19:01;;;;;;;;;2.25;2.25;;;;;;;;5232763;28;8780;-74
2022/07/26 10:21:34;;;;;;;;;1.25;1.25;;;;;;;;5249001;28;8761;-74
2022/07/26 10:24:22;;;;;;;;;2.00;2.00;;;;;;;;5249064;28;8804;-74
2022/07/26 10:27:31;;;;;;;;;1.75;1.75;;;;;;;;5265860;28;8800;-74
2022/07/26 10:30:17;;;;;;;;;2.00;2.00;;;;;;;;5266050;28;8784;-74
2022/07/26 10:32:58;;;;;;;;;2.00;2.00;;;;;;;;5248833;28;8809;-74
2022/07/26 10:35:31;;;;;;;;;2.25;2.25;;;;;;;;5248993;28;8850;-74
2022/07/26 10:38:25;;;;;;;;;2.75;2.75;;;;;;;;5251139;28;8776;-74
2022/07/26 10:40:57;;;;;;;;;1.75;1.75;;;;;;;;5232209;28;8815;-74
2022/07/26 10:43:29;;;;;;;;;2.25;2.25;;;;;;;;5232201;28;9717;-74
2022/07/26 10:46:18;;;;;;;;;1.50;1.50;;;;;;;;5266003;28;9017;-74
2022/07/26 10:48:57;;;;;;;;;1.50;1.50;;;;;;;;5248901;28;8899;-74
2022/07/26 10:51:31;;;;;;;;;0.75;0.75;;;;;;;;5233949;28;9522;-74
2022/07/26 10:54:06;;;;;;;;;1.75;1.75;;;;;;;;5252748;28;9569;-74
2022/07/26 10:56:56;;;;;;;;;1.00;1.00;;;;;;;;5269615;28;8804;-74
2022/07/26 10:59:31;;;;;;;;;1.75;1.75;;;;;;;;5252714;28;8788;-74
2022/07/26 11:02:03;;;;;;;;;1.75;1.75;;;;;;;;5236235;28;8785;-74
2022/07/26 11:04:59;;;;;;;;;2.50;2.50;;;;;;;;5255515;28;8931;-74
2022/07/26 11:07:30;;;;;;;;;2.00;2.00;;;;;;;;5253012;28;8803;-74
2022/07/26 11:10:01;;;;;;;;;1.00;1.00;;;;;;;;5252547;28;8804;-74
2022/07/26 11:12:34;;;;;;;;;1.00;1.00;;;;;;;;5270377;28;9550;-74
2022/07/26 11:15:17;;;;;;;;;1.00;1.00;;;;;;;;5269426;28;8799;-74
2022/07/26 11:17:48;;;;;;;;;1.50;1.50;;;;;;;;5252495;28;8777;-74
2022/07/26 11:20:28;;;;;;;;;1.67;1.67;;;;;;;;5269469;28;8898;-74
2022/07/26 11:22:59;;;;;;;;;3.00;3.00;;;;;;;;5269080;28;9868;-74
2022/07/26 11:25:30;;;;;;;;;27.00;25.25;;;;;;;;5268803;28;9432;-74
2022/07/26 11:28:02;;;;;;;;;0.75;0.75;;;;;;;;5270524;28;8811;-74
2022/07/26 11:30:33;;;;;;;;;0.50;0.50;;;;;;;;5252441;28;8852;-74
2022/07/26 11:33:04;;;;;;;;;1.00;1.00;;;;;;;;5269008;28;8813;-74
2022/07/26 11:35:35;;;;;;;;;1.00;1.00;;;;;;;;5268950;28;8796;-74
2022/07/26 11:38:07;;;;;;;;;1.33;1.33;;;;;;;;5268612;28;8788;-74
2022/07/26 11:40:42;;;;;;;;;2.50;2.50;;;;;;;;5251986;28;10359;-74
2022/07/26 11:43:13;;;;;;;;;1.00;1.00;;;;;;;;5252162;28;8781;-74
2022/07/26 11:45:50;;;;;;;;;0.00;0.00;;;;;;;;5251968;28;8798;-74
2022/07/26 11:48:21;;;;;;;;;1.50;1.50;;;;;;;;5252009;28;8811;-74
2022/07/26 11:51:06;;;;;;;;;1.33;1.33;;;;;;;;5235047;28;8777;-74
2022/07/26 11:53:38;;;;;;;;;0.00;0.00;;;;;;;;5251795;28;10908;-74
2022/07/26 11:56:10;;;;;;;;;3.00;3.00;;;;;;;;5252050;28;8769;-74
2022/07/26 11:58:43;;;;;;;;;2.50;2.50;;;;;;;;5268497;28;8922;-74
2022/07/26 12:01:16;;;;;;;;;3.00;3.00;;;;;;;;5251633;28;8772;-74
2022/07/26 12:03:48;;;;;;;;;0.75;0.75;;;;;;;;5234872;28;8776;-74
2022/07/26 12:06:21;;;;;;;;;0.00;0.00;;;;;;;;5251370;28;8796;-74
2022/07/26 12:08:58;;;;;;;;;2.00;2.00;;;;;;;;5234782;28;8792;-74
2022/07/26 12:11:38;;;;;;;;;1.00;1.00;;;;;;;;5251673;28;8785;-74
2022/07/26 12:14:09;;;;;;;;;2.00;2.00;;;;;;;;5226572;28;8854;-74
2022/07/26 12:16:40;;;;;;;;;3.50;3.50;;;;;;;;5238027;28;8789;-74
2022/07/26 12:19:18;;;;;;;;;2.75;2.75;;;;;;;;5253407;28;8806;-73
2022/07/26 12:21:48;;;;;;;;;3.00;3.00;;;;;;;;5257552;28;8792;-73
2022/07/26 12:24:35;;;;;;;;;2.50;2.50;;;;;;;;5251826;28;9616;-73
2022/07/26 12:27:11;;;;;;;;;15.00;15.00;;;;;;;;5234176;28;8862;-73
2022/07/26 12:29:43;;;;;;;;;2.00;2.00;;;;;;;;5249009;28;8817;-73
2022/07/26 12:32:14;;;;;;;;;3.25;3.25;;;;;;;;5249166;28;8791;-73
2022/07/26 12:34:54;;;;;;;;;2.00;2.00;;;;;;;;5248247;28;8785;-73
2022/07/26 12:37:28;;;;;;;;;9.75;9.50;;;;;;;;5227716;28;9512;-74
2022/07/26 12:40:19;;;;;;;;;2.00;2.00;;;;;;;;5249445;28;9526;-74
2022/07/26 12:42:50;;;;;;;;;2.25;2.25;;;;;;;;5251236;28;8803;-74
2022/07/26 12:45:23;;;;;;;;;3.00;3.00;;;;;;;;5228101;28;8803;-74
2022/07/26 12:48:12;;;;;;;;;25.25;24.00;;;;;;;;5256457;28;8838;-72
2022/07/26 12:50:43;;;;;;;;;6.00;6.00;;;;;;;;5262742;28;8807;-74
2022/07/26 12:53:35;;;;;;;;;2.00;2.00;;;;;;;;5254157;28;8960;-74
2022/07/26 12:56:06;;;;;;;;;0.50;0.50;;;;;;;;5244463;28;8821;-74
2022/07/26 12:58:37;;;;;;;;;2.00;2.00;;;;;;;;5227878;28;8795;-74
2022/07/26 13:01:10;;;;;;;;;2.00;2.00;;;;;;;;5245343;28;10894;-74
2022/07/26 13:03:59;;;;;;;;;7.00;7.00;;;;;;;;5233792;28;8810;-74
2022/07/26 13:06:48;;;;;;;;;2.75;2.75;;;;;;;;5253191;28;8803;-74
2022/07/26 13:09:19;;;;;;;;;7.50;7.50;;;;;;;;5251843;28;8855;-74
2022/07/26 13:11:51;;;;;;;;;2.50;2.50;;;;;;;;5250287;28;9549;-74
2022/07/26 13:14:22;;;;;;;;;5.00;5.00;;;;;;;;5246311;28;8900;-74
2022/07/26 13:16:53;;;;;;;;;1.00;1.00;;;;;;;;5231221;28;8795;-74
2022/07/26 13:19:24;;;;;;;;;2.50;2.50;;;;;;;;5253979;28;8780;-74
2022/07/26 13:21:56;;;;;;;;;2.67;2.67;;;;;;;;5245321;28;9517;-75
2022/07/26 13:24:27;;;;;;;;;2.00;2.00;;;;;;;;5245572;28;10634;-75
2022/07/26 13:26:59;;;;;;;;;4.75;4.75;;;;;;;;5246372;28;8832;-75
2022/07/26 13:29:30;;;;;;;;;4.25;4.00;;;;;;;;5229032;28;8787;-74
2022/07/26 13:32:01;;;;;;;;;1.00;1.00;;;;;;;;5246585;28;9533;-74
2022/07/26 13:34:32;;;;;;;;;2.00;2.00;;;;;;;;5248026;28;8946;-74
2022/07/26 13:37:03;;;;;;;;;1.00;1.00;;;;;;;;5233001;28;8950;-75
2022/07/26 13:39:52;;;;;;;;;2.50;2.50;;;;;;;;5250393;28;8799;-74
2022/07/26 13:42:23;;;;;;;;;1.00;1.00;;;;;;;;5246569;28;8787;-74
2022/07/26 13:44:54;;;;;;;;;2.00;2.00;;;;;;;;5245498;28;8771;-74
2022/07/26 13:47:25;;;;;;;;;4.25;4.25;;;;;;;;5245664;28;11454;-74
2022/07/26 13:49:56;;;;;;;;;3.00;3.00;;;;;;;;5228933;28;8795;-74
2022/07/26 13:52:27;;;;;;;;;3.25;3.25;;;;;;;;5212053;28;8799;-74
2022/07/26 13:54:58;;;;;;;;;3.00;3.00;;;;;;;;5245365;28;8864;-74
2022/07/26 13:57:29;;;;;;;;;2.00;2.00;;;;;;;;5245058;28;8799;-74
2022/07/26 14:00:00;;;;;;;;;3.75;3.75;;;;;;;;5228857;28;8783;-75
2022/07/26 14:02:31;;;;;;;;;3.00;3.00;;;;;;;;5245441;28;8790;-74
2022/07/26 14:05:02;;;;;;;;;1.75;1.75;;;;;;;;5246422;28;8848;-74
2022/07/26 14:07:33;;;;;;;;;2.00;2.00;;;;;;;;5245109;28;8786;-75
2022/07/26 14:10:04;;;;;;;;;1.00;1.00;;;;;;;;5228438;28;8825;-75
2022/07/26 14:12:36;;;;;;;;;1.75;1.75;;;;;;;;5227483;28;8877;-74
2022/07/26 14:15:11;;;;;;;;;0.00;0.00;;;;;;;;5249209;28;8853;-74
2022/07/26 14:18:01;;;;;;;;;2.25;2.25;;;;;;;;5267324;28;8788;-74
2022/07/26 14:20:32;;;;;;;;;2.00;2.00;;;;;;;;5265802;28;9465;-75
2022/07/26 14:23:03;;;;;;;;;2.00;2.00;;;;;;;;5267157;28;8811;-74
2022/07/26 14:25:34;;;;;;;;;4.25;4.25;;;;;;;;5269205;28;8846;-75
2022/07/26 14:28:05;;;;;;;;;2.00;2.00;;;;;;;;5252952;28;8808;-75
2022/07/26 14:30:36;;;;;;;;;1.75;1.75;;;;;;;;5236595;28;8934;-74
2022/07/26 14:33:08;;;;;;;;;2.25;2.25;;;;;;;;5271329;28;8878;-75
2022/07/26 14:35:40;;;;;;;;;2.75;2.75;;;;;;;;5271157;28;8780;-74
2022/07/26 14:38:11;;;;;;;;;5.50;5.50;;;;;;;;5270126;28;8781;-74
2022/07/26 14:40:42;;;;;;;;;5.00;5.00;;;;;;;;5270941;28;8792;-74
2022/07/26 14:43:13;;;;;;;;;4.00;4.00;;;;;;;;5269988;28;8793;-75
2022/07/26 14:45:46;;;;;;;;;4.50;4.00;;;;;;;;5245378;28;9509;-74
2022/07/26 14:48:17;;;;;;;;;3.33;3.33;;;;;;;;5248898;28;8791;-74
2022/07/26 14:50:48;;;;;;;;;3.50;3.50;;;;;;;;5250033;28;8879;-74
2022/07/26 14:53:19;;;;;;;;;3.67;3.67;;;;;;;;5250034;28;8825;-74
2022/07/26 14:55:51;;;;;;;;;2.75;2.75;;;;;;;;5231852;28;11472;-75
2022/07/26 14:58:23;;;;;;;;;0.25;0.25;;;;;;;;5248682;28;9505;-74
2022/07/26 15:00:54;;;;;;;;;0.00;0.00;;;;;;;;5259966;28;8807;-75
2022/07/26 15:03:25;;;;;;;;;2.50;2.50;;;;;;;;5259306;28;8783;-74
2022/07/26 15:05:56;;;;;;;;;2.50;2.50;;;;;;;;5258822;28;8828;-74
2022/07/26 15:08:27;;;;;;;;;2.00;2.00;;;;;;;;5267601;28;8842;-74
2022/07/26 15:10:59;;;;;;;;;2.50;2.50;;;;;;;;5234515;28;8834;-74
2022/07/26 15:13:30;;;;;;;;;4.00;4.00;;;;;;;;5250622;28;9519;-74
2022/07/26 15:16:00;;;;;;;;;3.33;3.33;;;;;;;;5250728;28;8801;-75
2022/07/26 15:18:32;;;;;;;;;3.75;3.75;;;;;;;;5233933;28;11313;-75
2022/07/26 15:21:22;;;;;;;;;2.50;2.50;;;;;;;;5252364;28;8858;-75
2022/07/26 15:23:53;;;;;;;;;1.00;1.00;;;;;;;;5230038;28;8835;-75
2022/07/26 15:26:24;;;;;;;;;2.00;2.00;;;;;;;;5229882;28;8802;-74
2022/07/26 15:28:54;;;;;;;;;3.25;3.25;;;;;;;;5247357;28;9550;-75
2022/07/26 15:31:45;;;;;;;;;2.25;2.25;;;;;;;;5249601;28;8803;-74
2022/07/26 15:34:16;;;;;;;;;1.00;1.00;;;;;;;;5266165;28;8982;-74